createdAt,value
2018-08-18T00:01:30.460Z,98053.14
2018-08-18T00:04:09.757Z,98055.63
2018-08-18T00:06:41.436Z,98059.12
2018-08-18T00:09:13.392Z,98062.81
2018-08-18T00:11:45.055Z,98064.46
2018-08-18T00:14:16.949Z,98065.67
2018-08-18T00:16:48.694Z,98066.18
2018-08-18T00:19:22.822Z,98068.02
2018-08-18T00:21:54.667Z,98071.52
2018-08-18T00:24:26.666Z,98075.34
2018-08-18T00:26:58.298Z,98075.53
2018-08-18T00:29:30.170Z,98074.52
2018-08-18T00:32:01.899Z,98076.55
2018-08-18T00:34:34.861Z,98077.56
2018-08-18T00:37:06.618Z,98083.55
2018-08-18T00:39:38.473Z,98086.41
2018-08-18T00:42:10.447Z,98095.66
2018-08-18T00:44:42.318Z,98099.98
2018-08-18T00:47:13.965Z,98098.02
2018-08-18T00:49:45.840Z,98105.61
2018-08-18T00:52:18.176Z,98108.50
2018-08-18T00:54:49.971Z,98100.58
2018-08-18T00:57:29.657Z,98107.77
2018-08-18T01:00:01.717Z,98112.28
2018-08-18T01:02:33.277Z,98114.16
2018-08-18T01:05:05.241Z,98132.31
2018-08-18T01:07:36.910Z,98133.36
2018-08-18T01:10:08.740Z,98133.87
2018-08-18T01:12:40.468Z,98140.73
2018-08-18T01:15:16.397Z,98140.10
2018-08-18T01:17:48.154Z,98142.91
2018-08-18T01:20:20.293Z,98145.57
2018-08-18T01:22:59.672Z,98147.28
2018-08-18T01:25:31.827Z,98149.58
2018-08-18T01:28:03.614Z,98152.44
2018-08-18T01:30:35.893Z,98158.48
2018-08-18T01:33:07.750Z,98146.59
2018-08-18T01:35:39.517Z,98152.95
2018-08-18T01:38:11.526Z,98154.09
2018-08-18T01:40:43.294Z,98158.09
2018-08-18T01:43:14.979Z,98163.95
2018-08-18T01:45:46.818Z,98166.11
2018-08-18T01:48:18.543Z,98167.13
2018-08-18T01:50:50.166Z,98176.16
2018-08-18T01:53:21.771Z,98177.30
2018-08-18T01:55:53.605Z,98180.98
2018-08-18T01:58:25.542Z,98183.84
2018-08-18T02:00:57.137Z,98182.52
2018-08-18T02:03:28.835Z,98187.85
2018-08-18T02:06:00.770Z,98191.86
2018-08-18T02:08:32.831Z,98192.17
2018-08-18T02:11:04.625Z,98194.53
2018-08-18T02:13:36.292Z,98196.19
2018-08-18T02:16:08.035Z,98198.67
2018-08-18T02:18:40.119Z,98206.36
2018-08-18T02:21:17.214Z,98206.87
2018-08-18T02:23:48.913Z,98207.19
2018-08-18T02:26:20.704Z,98208.52
2018-08-18T02:28:52.402Z,98210.87
2018-08-18T02:31:24.392Z,98207.19
2018-08-18T02:33:57.602Z,98209.86
2018-08-18T02:36:29.646Z,98220.73
2018-08-18T02:39:02.498Z,98224.87
2018-08-18T02:41:34.390Z,98228.55
2018-08-18T02:44:06.194Z,98230.39
2018-08-18T02:46:39.383Z,98235.73
2018-08-18T02:49:11.012Z,98229.56
2018-08-18T02:51:42.621Z,98233.89
2018-08-18T02:54:14.370Z,98241.72
2018-08-18T02:56:45.941Z,98239.05
2018-08-18T02:59:17.817Z,98243.56
2018-08-18T03:01:49.800Z,98248.71
2018-08-18T03:04:21.491Z,98248.39
2018-08-18T03:06:53.812Z,98245.72
2018-08-18T03:09:25.495Z,98255.90
2018-08-18T03:11:57.252Z,98251.89
2018-08-18T03:14:28.966Z,98259.39
2018-08-18T03:17:00.777Z,98251.89
2018-08-18T03:19:32.184Z,98257.23
2018-08-18T03:22:04.483Z,98259.91
2018-08-18T03:24:36.369Z,98254.05
2018-08-18T03:27:08.842Z,98255.90
2018-08-18T03:29:45.506Z,98254.88
2018-08-18T03:32:17.301Z,98258.57
2018-08-18T03:34:49.385Z,98263.72
2018-08-18T03:37:29.468Z,98268.84
2018-08-18T03:40:01.138Z,98275.20
2018-08-18T03:42:41.964Z,98272.02
2018-08-18T03:45:13.720Z,98279.53
2018-08-18T03:47:45.548Z,98282.52
2018-08-18T03:50:17.278Z,98280.36
2018-08-18T03:52:49.152Z,98280.36
2018-08-18T03:55:26.062Z,98282.20
2018-08-18T03:57:58.249Z,98285.19
2018-08-18T04:00:30.152Z,98278.52
2018-08-18T04:03:02.167Z,98278.01
2018-08-18T04:05:33.897Z,98279.84
2018-08-18T04:08:05.533Z,98283.86
2018-08-18T04:10:37.400Z,98284.36
2018-08-18T04:13:09.075Z,98288.19
2018-08-18T04:15:40.848Z,98291.36
2018-08-18T04:18:17.335Z,98285.52
2018-08-18T04:20:49.112Z,98282.84
2018-08-18T04:23:21.347Z,98282.33
2018-08-18T04:25:52.777Z,98290.67
2018-08-18T04:28:24.813Z,98281.64
2018-08-18T04:30:57.564Z,98288.31
2018-08-18T04:33:29.873Z,98290.48
2018-08-18T04:36:01.761Z,98284.09
2018-08-18T04:38:33.654Z,98287.30
2018-08-18T04:41:05.291Z,98285.97
2018-08-18T04:43:38.523Z,98288.09
2018-08-18T04:46:10.525Z,98289.66
2018-08-18T04:48:42.594Z,98284.63
2018-08-18T04:51:14.473Z,98283.80
2018-08-18T04:53:46.270Z,98281.96
2018-08-18T04:56:18.311Z,98285.97
2018-08-18T04:58:50.026Z,98288.09
2018-08-18T05:01:21.835Z,98289.97
2018-08-18T05:04:02.095Z,98293.98
2018-08-18T05:06:34.547Z,98289.97
2018-08-18T05:09:08.633Z,98288.64
2018-08-18T05:11:40.435Z,98278.75
2018-08-18T05:14:13.354Z,98277.73
2018-08-18T05:16:44.984Z,98275.06
2018-08-18T05:19:17.103Z,98276.08
2018-08-18T05:21:49.116Z,98270.23
2018-08-18T05:24:29.258Z,98269.72
2018-08-18T05:27:13.839Z,98264.38
2018-08-18T05:29:46.181Z,98262.53
2018-08-18T05:32:18.200Z,98266.03
2018-08-18T05:34:50.088Z,98259.36
2018-08-18T05:37:21.948Z,98252.86
2018-08-18T05:39:53.708Z,98248.67
2018-08-18T05:42:25.527Z,98245.68
2018-08-18T05:44:57.413Z,98243.52
2018-08-18T05:47:28.976Z,98243.52
2018-08-18T05:50:00.867Z,98239.64
2018-08-18T05:52:32.343Z,98237.29
2018-08-18T05:55:04.194Z,98236.46
2018-08-18T05:57:35.785Z,98233.80
2018-08-18T06:00:13.084Z,98238.12
2018-08-18T06:02:49.342Z,98220.25
2018-08-18T06:05:22.157Z,98219.55
2018-08-18T06:07:53.878Z,98213.56
2018-08-18T06:10:25.902Z,98219.23
2018-08-18T06:12:57.931Z,98205.05
2018-08-18T06:15:29.753Z,98205.88
2018-08-18T06:18:01.507Z,98202.19
2018-08-18T06:20:33.541Z,98195.50
2018-08-18T06:23:05.327Z,98192.84
2018-08-18T06:25:37.219Z,98186.44
2018-08-18T06:28:09.073Z,98177.83
2018-08-18T06:30:40.888Z,98181.09
2018-08-18T06:33:13.006Z,98184.09
2018-08-18T06:35:44.973Z,98175.25
2018-08-18T06:38:16.691Z,98169.91
2018-08-18T06:40:55.777Z,98158.52
2018-08-18T06:43:28.578Z,98166.02
2018-08-18T06:46:00.967Z,98156.99
2018-08-18T06:48:33.826Z,98165.84
2018-08-18T06:51:05.951Z,98160.81
2018-08-18T06:53:43.960Z,98153.30
2018-08-18T06:56:16.119Z,98153.08
2018-08-18T06:58:48.319Z,98146.94
2018-08-18T07:01:20.334Z,98138.93
2018-08-18T07:03:51.931Z,98138.39
2018-08-18T07:06:23.887Z,98128.53
2018-08-18T07:08:56.153Z,98120.52
2018-08-18T07:11:28.345Z,98115.48
2018-08-18T07:14:00.256Z,98111.67
2018-08-18T07:16:32.466Z,98108.48
2018-08-18T07:19:04.118Z,98099.45
2018-08-18T07:21:36.122Z,98099.45
2018-08-18T07:24:08.261Z,98097.92
2018-08-18T07:26:39.962Z,98087.55
2018-08-18T07:29:11.747Z,98084.38
2018-08-18T07:31:43.416Z,98078.36
2018-08-18T07:34:15.263Z,98067.13
2018-08-18T07:36:47.354Z,98063.66
2018-08-18T07:39:19.386Z,98059.43
2018-08-18T07:41:51.929Z,98053.27
2018-08-18T07:44:23.742Z,98038.56
2018-08-18T07:46:55.765Z,98038.56
2018-08-18T07:49:27.643Z,98034.17
2018-08-18T07:51:59.516Z,98021.31
2018-08-18T07:54:31.525Z,98023.16
2018-08-18T07:57:04.192Z,98025.64
2018-08-18T07:59:36.006Z,98021.83
2018-08-18T08:02:08.204Z,98015.47
2018-08-18T08:04:39.768Z,98019.78
2018-08-18T08:07:12.340Z,98006.42
2018-08-18T08:09:45.028Z,98002.42
2018-08-18T08:12:17.186Z,97993.69
2018-08-18T08:14:49.053Z,97999.04
2018-08-18T08:17:20.920Z,97993.69
2018-08-18T08:19:53.016Z,97989.97
2018-08-18T08:22:24.927Z,97998.62
2018-08-18T08:24:56.899Z,97986.27
2018-08-18T08:27:29.039Z,97986.27
2018-08-18T08:30:01.078Z,97984.23
2018-08-18T08:32:32.949Z,97987.92
2018-08-18T08:35:06.539Z,97977.55
2018-08-18T08:37:38.733Z,97972.20
2018-08-18T08:40:13.145Z,97966.35
2018-08-18T08:42:45.366Z,97968.52
2018-08-18T08:45:18.466Z,97965.33
2018-08-18T08:47:50.621Z,97954.64
2018-08-18T08:50:24.416Z,97953.11
2018-08-18T08:52:57.675Z,97949.09
2018-08-18T08:55:30.201Z,97941.88
2018-08-18T08:58:02.901Z,97929.14
2018-08-18T09:00:34.581Z,97924.11
2018-08-18T09:03:06.548Z,97923.59
2018-08-18T09:05:38.317Z,97911.88
2018-08-18T09:08:10.582Z,97903.04
2018-08-18T09:10:42.868Z,97898.01
2018-08-18T09:13:14.548Z,97891.95
2018-08-18T09:15:46.225Z,97890.06
2018-08-18T09:18:18.472Z,97877.53
2018-08-18T09:20:50.320Z,97883.70
2018-08-18T09:23:22.434Z,97883.70
2018-08-18T09:25:54.244Z,97894.70
2018-08-18T09:28:26.411Z,97888.02
2018-08-18T09:30:58.409Z,97885.66
2018-08-18T09:33:30.383Z,97883.30
2018-08-18T09:36:05.315Z,97875.28
2018-08-18T09:38:37.567Z,97870.77
2018-08-18T09:41:09.458Z,97862.03
2018-08-18T09:43:41.937Z,97860.15
2018-08-18T09:46:13.603Z,97849.77
2018-08-18T09:48:45.476Z,97845.25
2018-08-18T09:51:17.274Z,97838.88
2018-08-18T09:53:48.948Z,97836.00
2018-08-18T09:56:20.654Z,97834.98
2018-08-18T09:58:53.559Z,97838.47
2018-08-18T10:01:25.548Z,97830.84
2018-08-18T10:03:57.394Z,97826.52
2018-08-18T10:06:29.217Z,97819.63
2018-08-18T10:09:01.282Z,97809.45
2018-08-18T10:11:32.964Z,97816.14
2018-08-18T10:14:05.496Z,97819.13
2018-08-18T10:16:37.960Z,97818.09
2018-08-18T10:19:09.960Z,97828.28
2018-08-18T10:21:41.460Z,97825.09
2018-08-18T10:24:13.460Z,97833.11
2018-08-18T10:26:50.644Z,97842.27
2018-08-18T10:29:25.604Z,97836.37
2018-08-18T10:31:58.291Z,97837.20
2018-08-18T10:34:31.641Z,97837.82
2018-08-18T10:37:06.903Z,97841.11
2018-08-18T10:39:39.614Z,97838.75
2018-08-18T10:42:22.119Z,97833.41
2018-08-18T10:44:58.671Z,97833.52
2018-08-18T10:47:31.087Z,97833.00
2018-08-18T10:50:12.321Z,97843.69
2018-08-18T10:52:53.550Z,97844.00
2018-08-18T10:55:26.081Z,97851.83
2018-08-18T10:58:05.985Z,97837.63
2018-08-18T11:00:38.098Z,97842.77
2018-08-18T11:03:10.289Z,97837.94
2018-08-18T11:05:42.257Z,97839.08
2018-08-18T11:08:14.084Z,97844.42
2018-08-18T11:10:46.195Z,97834.83
2018-08-18T11:13:17.759Z,97829.59
2018-08-18T11:15:49.590Z,97821.56
2018-08-18T11:18:21.961Z,97813.64
2018-08-18T11:20:53.890Z,97815.80
2018-08-18T11:23:25.697Z,97817.45
2018-08-18T11:25:58.553Z,97825.04
2018-08-18T11:28:30.273Z,97827.20
2018-08-18T11:31:02.155Z,97835.73
2018-08-18T11:33:43.061Z,97826.69
2018-08-18T11:36:14.867Z,97824.83
2018-08-18T11:38:46.457Z,97824.32
2018-08-18T11:41:18.392Z,97817.63
2018-08-18T11:43:51.360Z,97818.77
2018-08-18T11:46:23.191Z,97820.38
2018-08-18T11:48:54.709Z,97815.34
2018-08-18T11:51:31.177Z,97809.99
2018-08-18T11:54:03.068Z,97816.78
2018-08-18T11:56:40.005Z,97817.30
2018-08-18T11:59:15.698Z,97817.09
2018-08-18T12:01:51.464Z,97822.75
2018-08-18T12:04:24.100Z,97813.39
2018-08-18T12:06:58.838Z,97807.02
2018-08-18T12:09:30.588Z,97806.77
2018-08-18T12:12:02.600Z,97817.27
2018-08-18T12:14:34.333Z,97817.89
2018-08-18T12:17:07.518Z,97822.20
2018-08-18T12:19:39.319Z,97820.67
2018-08-18T12:22:11.246Z,97829.48
2018-08-18T12:24:46.762Z,97831.13
2018-08-18T12:27:18.626Z,97838.13
2018-08-18T12:29:50.824Z,97837.82
2018-08-18T12:32:28.816Z,97834.12
2018-08-18T12:35:00.272Z,97839.78
2018-08-18T12:37:32.252Z,97836.37
2018-08-18T12:40:04.011Z,97831.23
2018-08-18T12:42:35.885Z,97837.72
2018-08-18T12:45:07.877Z,97834.02
2018-08-18T12:47:44.778Z,97835.11
2018-08-18T12:50:19.762Z,97831.10
2018-08-18T12:52:51.810Z,97828.22
2018-08-18T12:55:23.397Z,97829.05
2018-08-18T12:57:55.262Z,97835.53
2018-08-18T13:00:27.755Z,97839.54
2018-08-18T13:02:59.414Z,97841.50
2018-08-18T13:05:31.020Z,97846.84
2018-08-18T13:08:03.123Z,97855.19
2018-08-18T13:10:34.749Z,97856.52
2018-08-18T13:13:06.608Z,97858.69
2018-08-18T13:15:38.435Z,97861.05
2018-08-18T13:18:10.623Z,97868.05
2018-08-18T13:20:42.579Z,97872.58
2018-08-18T13:23:14.491Z,97880.61
2018-08-18T13:25:46.383Z,97887.30
2018-08-18T13:28:17.988Z,97886.27
2018-08-18T13:30:49.639Z,97879.89
2018-08-18T13:33:21.806Z,97886.89
2018-08-18T13:35:53.522Z,97889.56
2018-08-18T13:38:33.428Z,97891.93
2018-08-18T13:41:05.458Z,97897.59
2018-08-18T13:43:45.062Z,97899.23
2018-08-18T13:46:18.999Z,97911.08
2018-08-18T13:48:55.534Z,97905.73
2018-08-18T13:51:27.673Z,97905.21
2018-08-18T13:53:59.809Z,97912.11
2018-08-18T13:56:31.585Z,97908.17
2018-08-18T13:59:03.920Z,97914.06
2018-08-18T14:01:40.301Z,97921.27
2018-08-18T14:04:20.686Z,97922.89
2018-08-18T14:06:53.208Z,97932.48
2018-08-18T14:09:25.101Z,97934.93
2018-08-18T14:12:03.593Z,97937.33
2018-08-18T14:14:35.416Z,97940.28
2018-08-18T14:17:07.148Z,97943.50
2018-08-18T14:19:39.149Z,97945.43
2018-08-18T14:22:11.702Z,97940.59
2018-08-18T14:24:43.626Z,97944.92
2018-08-18T14:27:20.379Z,97949.24
2018-08-18T14:29:52.180Z,97955.94
2018-08-18T14:32:29.689Z,97969.62
2018-08-18T14:35:08.511Z,97974.16
2018-08-18T14:37:41.933Z,97971.27
2018-08-18T14:40:19.212Z,97977.97
2018-08-18T14:42:51.674Z,97971.79
2018-08-18T14:45:25.299Z,97983.32
2018-08-18T14:47:57.379Z,97997.53
2018-08-18T14:50:31.111Z,97999.45
2018-08-18T14:53:11.279Z,98001.34
2018-08-18T14:55:43.244Z,98003.78
2018-08-18T14:58:14.946Z,98012.33
2018-08-18T15:00:47.087Z,98015.75
2018-08-18T15:03:18.714Z,98006.89
2018-08-18T15:05:50.618Z,98010.39
2018-08-18T15:08:22.243Z,98014.17
2018-08-18T15:10:54.225Z,98019.02
2018-08-18T15:13:25.993Z,98032.20
2018-08-18T15:15:57.952Z,98035.39
2018-08-18T15:18:29.804Z,98046.61
2018-08-18T15:21:01.788Z,98038.89
2018-08-18T15:23:33.206Z,98040.02
2018-08-18T15:26:05.141Z,98042.70
2018-08-18T15:28:37.009Z,98049.08
2018-08-18T15:31:09.136Z,98053.41
2018-08-18T15:33:40.959Z,98071.13
2018-08-18T15:36:22.433Z,98071.44
2018-08-18T15:38:54.220Z,98078.13
2018-08-18T15:41:27.309Z,98079.35
2018-08-18T15:43:58.820Z,98087.59
2018-08-18T15:46:31.062Z,98103.33
2018-08-18T15:49:03.500Z,98105.93
2018-08-18T15:51:38.190Z,98112.70
2018-08-18T15:54:09.744Z,98126.59
2018-08-18T15:56:42.044Z,98121.48
2018-08-18T15:59:14.627Z,98122.81
2018-08-18T16:01:46.586Z,98122.81
2018-08-18T16:04:18.371Z,98122.81
2018-08-18T16:06:50.096Z,98125.18
2018-08-18T16:09:22.153Z,98127.55
2018-08-18T16:11:55.789Z,98127.55
2018-08-18T16:14:27.516Z,98131.88
2018-08-18T16:17:01.827Z,98123.22
2018-08-18T16:19:37.615Z,98123.22
2018-08-18T16:22:10.257Z,98121.56
2018-08-18T16:24:46.823Z,98128.27
2018-08-18T16:27:19.424Z,98130.73
2018-08-18T16:29:52.670Z,98134.32
2018-08-18T16:32:27.481Z,98142.32
2018-08-18T16:35:06.570Z,98142.13
2018-08-18T16:37:44.964Z,98146.45
2018-08-18T16:40:17.420Z,98148.22
2018-08-18T16:42:49.657Z,98143.30
2018-08-18T16:45:27.313Z,98144.95
2018-08-18T16:48:02.993Z,98145.03
2018-08-18T16:50:42.937Z,98145.34
2018-08-18T16:53:22.252Z,98140.50
2018-08-18T16:55:55.720Z,98133.30
2018-08-18T16:58:28.813Z,98137.94
2018-08-18T17:01:02.275Z,98133.21
2018-08-18T17:03:36.147Z,98132.90
2018-08-18T17:06:08.064Z,98132.70
2018-08-18T17:08:40.129Z,98130.84
2018-08-18T17:11:12.471Z,98127.42
2018-08-18T17:13:44.681Z,98126.09
2018-08-18T17:16:16.515Z,98123.84
2018-08-18T17:18:48.573Z,98116.84
2018-08-18T17:21:20.151Z,98115.89
2018-08-18T17:23:53.173Z,98120.02
2018-08-18T17:26:25.363Z,98119.11
2018-08-18T17:28:57.864Z,98115.09
2018-08-18T17:31:30.106Z,98114.98
2018-08-18T17:34:02.364Z,98115.18
2018-08-18T17:36:34.228Z,98108.59
2018-08-18T17:39:07.447Z,98100.88
2018-08-18T17:41:39.491Z,98093.16
2018-08-18T17:44:13.821Z,98093.95
2018-08-18T17:46:50.514Z,98087.06
2018-08-18T17:49:23.565Z,98083.36
2018-08-18T17:52:06.711Z,98086.86
2018-08-18T17:54:39.588Z,98080.68
2018-08-18T17:57:11.422Z,98070.28
2018-08-18T17:59:43.245Z,98063.90
2018-08-18T18:02:17.086Z,98063.08
2018-08-18T18:04:56.880Z,98064.92
2018-08-18T18:07:28.671Z,98054.84
2018-08-18T18:10:01.226Z,98064.22
2018-08-18T18:12:34.404Z,98074.92
2018-08-18T18:15:15.429Z,98074.61
2018-08-18T18:17:48.639Z,98076.77
2018-08-18T18:20:20.919Z,98071.94
2018-08-18T18:22:52.503Z,98073.58
2018-08-18T18:25:24.607Z,98066.06
2018-08-18T18:27:57.047Z,98061.84
2018-08-18T18:30:29.884Z,98060.51
2018-08-18T18:33:01.891Z,98061.30
2018-08-18T18:35:34.577Z,98059.17
2018-08-18T18:38:07.129Z,98051.93
2018-08-18T18:40:43.909Z,98053.06
2018-08-18T18:43:15.718Z,98049.56
2018-08-18T18:45:48.556Z,98061.09
2018-08-18T18:48:20.604Z,98064.09
2018-08-18T18:50:53.479Z,98057.08
2018-08-18T18:53:27.460Z,98059.76
2018-08-18T18:56:00.154Z,98064.60
2018-08-18T18:58:32.427Z,98057.91
2018-08-18T19:01:06.547Z,98050.70
2018-08-18T19:03:38.759Z,98055.16
2018-08-18T19:06:10.714Z,98055.44
2018-08-18T19:08:56.679Z,98054.09
2018-08-18T19:11:29.282Z,98050.08
2018-08-18T19:14:01.481Z,98051.42
